Time;durP1;ratioP1;P1;durP2;ratioP2;P2;SDS_P1;SDS_P2;PMS_P1;PMS_P2;Temp;Humidity;BMP_temperature;BMP_pressure;BME280_temperature;BME280_humidity;BME280_pressure;Samples;Min_cycle;Max_cycle;Signal;HPM_P1;HPM_P2
2022/06/24 00:02:23;;;;;;;9.45;4.50;;;24.90;52.60;;;;;;6155165;28;80486;-68
2022/06/24 00:05:23;;;;;;;7.30;3.83;;;24.90;52.70;;;;;;6154252;28;80973;-67
2022/06/24 00:08:24;;;;;;;9.90;4.70;;;24.90;52.70;;;;;;6157999;28;80451;-67
2022/06/24 00:11:24;;;;;;;8.02;4.07;;;24.90;52.60;;;;;;6158299;28;80581;-67
2022/06/24 00:14:25;;;;;;;5.28;4.10;;;24.90;52.70;;;;;;6158156;28;86425;-67
2022/06/24 00:17:25;;;;;;;6.30;4.00;;;24.90;52.80;;;;;;6157625;28;80669;-67
2022/06/24 00:20:25;;;;;;;7.25;4.15;;;24.90;52.60;;;;;;6156660;28;80581;-66
2022/06/24 00:23:26;;;;;;;6.38;4.10;;;24.90;52.60;;;;;;6157935;28;81755;-66
2022/06/24 00:26:26;;;;;;;8.45;4.15;;;24.90;52.50;;;;;;6157999;28;80392;-66
2022/06/24 00:29:28;;;;;;;8.50;3.83;;;24.90;52.40;;;;;;6156176;28;81519;-66
2022/06/24 00:32:29;;;;;;;8.13;4.53;;;24.90;52.50;;;;;;6157565;28;80543;-66
2022/06/24 00:35:29;;;;;;;5.78;3.75;;;24.90;52.50;;;;;;6157554;28;80486;-66
2022/06/24 00:38:30;;;;;;;7.22;4.55;;;24.90;52.40;;;;;;6157112;28;87356;-66
2022/06/24 00:41:31;;;;;;;8.05;3.88;;;24.90;52.40;;;;;;6157647;28;80643;-66
2022/06/24 00:44:32;;;;;;;10.82;4.43;;;24.90;52.40;;;;;;6154772;28;80585;-67
2022/06/24 00:47:32;;;;;;;9.35;4.55;;;24.90;52.50;;;;;;6148660;28;80680;-67
2022/06/24 00:50:33;;;;;;;10.35;4.45;;;24.90;52.40;;;;;;6157490;28;80923;-66
2022/06/24 00:53:33;;;;;;;7.60;4.00;;;24.90;52.40;;;;;;6151549;28;81630;-66
2022/06/24 00:56:33;;;;;;;8.40;4.68;;;24.90;52.30;;;;;;6155604;28;81575;-66
2022/06/24 00:59:34;;;;;;;8.40;3.60;;;24.90;52.40;;;;;;6162018;28;80260;-67
2022/06/24 01:02:35;;;;;;;8.13;4.07;;;24.90;52.40;;;;;;6148007;28;81555;-67
2022/06/24 01:05:35;;;;;;;6.22;3.78;;;24.90;52.40;;;;;;6161820;28;81542;-66
2022/06/24 01:08:36;;;;;;;5.20;3.50;;;24.90;52.40;;;;;;6161955;28;80096;-67
2022/06/24 01:11:36;;;;;;;8.35;3.83;;;24.90;52.40;;;;;;6162027;28;80512;-66
2022/06/24 01:14:37;;;;;;;6.88;3.65;;;24.80;52.50;;;;;;6164832;28;80949;-65
2022/06/24 01:17:37;;;;;;;10.85;3.80;;;24.80;52.50;;;;;;6160869;28;81745;-67
2022/06/24 01:20:38;;;;;;;6.45;4.00;;;24.80;52.50;;;;;;6160897;28;80679;-67
2022/06/24 01:23:38;;;;;;;8.02;3.65;;;24.80;52.50;;;;;;6161268;28;80584;-66
2022/06/24 01:26:39;;;;;;;6.95;3.20;;;24.80;53.20;;;;;;6152237;28;80565;-68
2022/06/24 01:29:39;;;;;;;4.72;2.97;;;24.80;52.70;;;;;;6159765;28;81705;-67
2022/06/24 01:32:39;;;;;;;4.65;3.50;;;24.80;52.70;;;;;;6158878;28;80615;-68
2022/06/24 01:35:40;;;;;;;6.90;3.80;;;24.80;52.80;;;;;;6151983;28;80758;-68
2022/06/24 01:38:40;;;;;;;6.63;3.08;;;24.80;52.60;;;;;;6156161;28;81905;-67
2022/06/24 01:41:41;;;;;;;4.63;3.45;;;24.70;52.70;;;;;;6160857;28;80061;-68
2022/06/24 01:44:41;;;;;;;6.88;3.28;;;24.70;52.50;;;;;;6152922;28;81928;-66
2022/06/24 01:47:42;;;;;;;6.95;4.00;;;24.80;52.60;;;;;;6161279;28;80330;-67
2022/06/24 01:50:42;;;;;;;4.53;3.40;;;24.70;52.50;;;;;;6160624;28;80309;-67
2022/06/24 01:53:43;;;;;;;10.20;3.58;;;24.70;52.60;;;;;;6160921;28;81106;-67
2022/06/24 01:56:43;;;;;;;9.27;3.78;;;24.70;52.50;;;;;;6159502;28;81022;-66
2022/06/24 01:59:44;;;;;;;6.32;3.80;;;24.70;52.60;;;;;;6159515;28;81435;-66
2022/06/24 02:02:44;;;;;;;4.28;3.20;;;24.70;52.50;;;;;;6160366;28;80533;-66
2022/06/24 02:05:45;;;;;;;6.15;3.53;;;24.70;52.50;;;;;;6148142;28;81076;-66
2022/06/24 02:08:45;;;;;;;5.13;3.67;;;24.70;52.60;;;;;;6154375;28;81469;-65
2022/06/24 02:15:05;;;;;;;6.90;3.58;;;24.70;52.60;;;;;;6149504;28;80893;-67
2022/06/24 02:18:05;;;;;;;8.73;3.63;;;24.60;52.50;;;;;;6151245;28;81596;-67
2022/06/24 02:21:06;;;;;;;8.00;3.85;;;24.60;52.50;;;;;;6151384;28;81040;-67
2022/06/24 02:24:06;;;;;;;5.97;3.40;;;24.60;52.50;;;;;;6155522;28;81781;-67
2022/06/24 02:27:07;;;;;;;9.50;3.83;;;24.60;52.40;;;;;;6160046;28;80524;-67
2022/06/24 02:30:07;;;;;;;6.30;3.63;;;24.60;52.40;;;;;;6160502;28;80403;-67
2022/06/24 02:33:08;;;;;;;6.53;3.78;;;24.60;52.40;;;;;;6160156;28;80711;-67
2022/06/24 02:36:08;;;;;;;4.13;3.35;;;24.60;52.40;;;;;;6159805;28;80334;-67
2022/06/24 02:39:09;;;;;;;7.70;3.70;;;24.60;52.40;;;;;;6159742;28;80600;-66
2022/06/24 02:42:09;;;;;;;8.35;4.10;;;24.60;52.30;;;;;;6150543;28;83515;-66
2022/06/24 02:45:10;;;;;;;5.82;3.25;;;24.60;52.20;;;;;;6159882;28;80343;-66
2022/06/24 02:48:10;;;;;;;10.43;3.33;;;24.60;52.20;;;;;;6159549;28;80674;-66
2022/06/24 02:51:10;;;;;;;5.72;3.72;;;24.50;52.20;;;;;;6155627;28;81691;-66
2022/06/24 02:54:11;;;;;;;7.68;3.47;;;24.60;52.20;;;;;;6155906;28;80429;-67
2022/06/24 02:57:11;;;;;;;7.38;3.47;;;24.50;52.20;;;;;;6156876;28;80956;-67
2022/06/24 03:00:12;;;;;;;5.50;3.40;;;24.50;52.20;;;;;;6159722;28;80786;-68
2022/06/24 03:03:12;;;;;;;6.55;3.47;;;24.60;52.20;;;;;;6159526;28;81768;-67
2022/06/24 03:06:13;;;;;;;7.00;4.18;;;24.60;52.20;;;;;;6159372;28;80360;-67
2022/06/24 03:09:13;;;;;;;7.40;3.53;;;24.50;52.10;;;;;;6158525;28;81986;-68
2022/06/24 03:12:14;;;;;;;10.50;3.80;;;24.50;52.00;;;;;;6154630;28;81411;-67
2022/06/24 03:15:14;;;;;;;4.68;3.42;;;24.50;52.00;;;;;;6153386;28;80458;-67
2022/06/24 03:18:17;;;;;;;8.55;3.85;;;24.60;52.00;;;;;;6157506;28;80599;-67
2022/06/24 03:21:18;;;;;;;7.65;3.33;;;24.50;52.10;;;;;;6157901;28;80637;-68
2022/06/24 03:24:19;;;;;;;6.30;3.97;;;24.50;52.10;;;;;;6156117;28;81860;-68
2022/06/24 03:27:19;;;;;;;5.90;3.58;;;24.60;52.20;;;;;;6155195;28;80469;-66
2022/06/24 03:30:20;;;;;;;7.85;3.70;;;24.60;52.20;;;;;;6149111;28;80345;-67
2022/06/24 03:33:20;;;;;;;9.95;4.78;;;24.60;52.20;;;;;;6158386;28;81787;-66
2022/06/24 03:36:21;;;;;;;7.40;4.10;;;24.60;52.30;;;;;;6156413;28;87347;-67
2022/06/24 03:39:21;;;;;;;11.43;3.83;;;24.60;52.50;;;;;;6152911;28;81201;-70
2022/06/24 03:42:22;;;;;;;7.20;4.25;;;24.60;52.10;;;;;;6170168;28;80430;-68
2022/06/24 03:45:22;;;;;;;6.75;3.55;;;24.60;51.90;;;;;;6155899;28;81437;-66
2022/06/24 03:48:23;;;;;;;8.82;4.40;;;24.60;52.40;;;;;;6157628;28;81687;-66
2022/06/24 03:51:23;;;;;;;6.85;4.13;;;24.60;52.70;;;;;;6157636;28;81482;-71
2022/06/24 03:54:24;;;;;;;10.00;4.63;;;24.60;52.60;;;;;;6157711;28;80481;-64
2022/06/24 03:57:24;;;;;;;10.60;4.78;;;24.60;52.40;;;;;;6161311;28;80544;-64
2022/06/24 04:00:25;;;;;;;16.45;4.25;;;24.60;52.40;;;;;;6155402;28;80830;-64
2022/06/24 04:03:25;;;;;;;6.68;3.90;;;24.60;52.80;;;;;;6157885;28;80496;-65
2022/06/24 04:06:26;;;;;;;7.07;3.88;;;24.60;52.50;;;;;;6158544;28;80395;-64
2022/06/24 04:09:26;;;;;;;9.13;3.85;;;24.60;52.60;;;;;;6158134;28;81716;-65
2022/06/24 04:12:26;;;;;;;11.18;3.58;;;24.60;52.70;;;;;;6158239;28;80699;-65
2022/06/24 04:15:27;;;;;;;7.18;4.53;;;24.60;52.60;;;;;;6154984;28;80926;-68
2022/06/24 04:18:27;;;;;;;12.38;4.72;;;24.60;52.80;;;;;;6156987;28;80408;-66
2022/06/24 04:21:30;;;;;;;8.30;4.15;;;24.70;52.80;;;;;;6156788;28;80704;-71
2022/06/24 04:24:31;;;;;;;8.48;4.32;;;24.60;52.80;;;;;;6158299;28;80458;-65
2022/06/24 04:27:31;;;;;;;10.85;3.97;;;24.70;52.90;;;;;;6157189;28;80418;-71
2022/06/24 04:30:32;;;;;;;12.43;4.32;;;24.60;53.10;;;;;;6153883;28;81110;-65
2022/06/24 04:33:32;;;;;;;19.73;5.55;;;24.70;53.10;;;;;;6158190;28;80387;-64
2022/06/24 04:36:33;;;;;;;14.98;6.07;;;24.60;52.70;;;;;;6156750;28;80676;-65
2022/06/24 04:39:33;;;;;;;18.00;5.53;;;24.60;53.10;;;;;;6155830;28;80830;-65
2022/06/24 04:42:34;;;;;;;12.20;5.68;;;24.60;53.20;;;;;;6158138;28;80685;-64
2022/06/24 04:45:34;;;;;;;17.27;5.78;;;24.60;52.90;;;;;;6157723;28;80391;-64
2022/06/24 04:48:35;;;;;;;16.00;5.70;;;24.60;52.80;;;;;;6158247;28;81412;-64
2022/06/24 04:51:36;;;;;;;13.23;5.28;;;24.60;52.60;;;;;;6157806;28;80714;-64
2022/06/24 04:54:36;;;;;;;9.70;5.15;;;24.50;52.50;;;;;;6157631;28;81161;-64
2022/06/24 04:57:38;;;;;;;6.90;4.47;;;24.50;52.30;;;;;;6158000;28;80751;-63
2022/06/24 05:00:39;;;;;;;7.65;4.45;;;24.50;52.20;;;;;;6157533;28;80560;-64
2022/06/24 05:03:39;;;;;;;13.30;5.10;;;24.40;52.20;;;;;;6157409;28;81383;-64
2022/06/24 05:06:40;;;;;;;13.95;4.68;;;24.40;52.20;;;;;;6157788;28;80631;-64
2022/06/24 05:09:41;;;;;;;11.45;4.80;;;24.40;52.20;;;;;;6153437;28;80442;-64
2022/06/24 05:12:41;;;;;;;10.43;4.70;;;24.40;52.40;;;;;;6152342;28;80525;-64
2022/06/24 05:15:42;;;;;;;7.75;4.07;;;24.40;52.50;;;;;;6155907;28;80519;-64
2022/06/24 05:18:42;;;;;;;9.23;4.40;;;24.40;52.50;;;;;;6156336;28;80903;-64
2022/06/24 05:21:43;;;;;;;8.57;4.13;;;24.40;52.60;;;;;;6157077;28;80425;-64
2022/06/24 05:24:43;;;;;;;8.95;4.45;;;24.40;52.50;;;;;;6146581;28;80942;-64
2022/06/24 05:27:44;;;;;;;9.52;5.00;;;24.40;52.50;;;;;;6156606;28;80982;-64
2022/06/24 05:30:44;;;;;;;7.57;4.10;;;24.40;52.50;;;;;;6156361;28;80537;-64
2022/06/24 05:33:44;;;;;;;8.98;4.57;;;24.40;52.70;;;;;;6155944;28;80325;-64
2022/06/24 05:36:45;;;;;;;7.13;4.60;;;24.40;52.80;;;;;;6156700;28;80467;-65
2022/06/24 05:39:46;;;;;;;7.53;4.63;;;24.40;52.70;;;;;;6156426;28;80820;-65
2022/06/24 05:42:46;;;;;;;8.20;5.13;;;24.40;53.00;;;;;;6157283;28;80441;-65
2022/06/24 05:45:47;;;;;;;11.48;5.15;;;24.40;52.90;;;;;;6157684;28;80823;-64
2022/06/24 05:48:47;;;;;;;7.72;4.78;;;24.40;53.00;;;;;;6161120;28;81333;-64
2022/06/24 05:51:48;;;;;;;9.98;5.30;;;24.40;53.20;;;;;;6161820;28;82315;-64
2022/06/24 05:55:03;;;;;;;9.45;5.18;;;24.30;53.40;;;;;;6159372;28;80516;-64
2022/06/24 05:58:04;;;;;;;10.38;4.47;;;24.20;53.60;;;;;;6151818;28;80491;-64
2022/06/24 06:01:04;;;;;;;12.27;5.47;;;24.30;53.70;;;;;;6149633;28;80897;-64
2022/06/24 06:04:05;;;;;;;12.05;4.90;;;24.30;53.90;;;;;;6159041;28;85619;-64
2022/06/24 06:07:05;;;;;;;7.38;4.60;;;24.30;53.80;;;;;;6160534;28;80573;-64
2022/06/24 06:10:06;;;;;;;10.38;4.68;;;24.30;54.00;;;;;;6154580;28;81562;-65
2022/06/24 06:13:06;;;;;;;8.25;4.53;;;24.30;53.90;;;;;;6160136;28;80271;-64
2022/06/24 06:16:07;;;;;;;17.30;5.43;;;24.30;53.90;;;;;;6153106;28;80407;-64
2022/06/24 06:19:07;;;;;;;8.70;4.03;;;24.30;53.90;;;;;;6154707;28;81664;-64
2022/06/24 06:22:08;;;;;;;6.38;4.25;;;24.30;54.00;;;;;;6160317;28;80487;-64
2022/06/24 06:25:09;;;;;;;9.02;4.80;;;24.30;53.90;;;;;;6160965;28;80584;-65
2022/06/24 06:28:09;;;;;;;7.53;4.50;;;24.30;53.80;;;;;;6157776;28;80465;-64
2022/06/24 06:31:10;;;;;;;11.32;4.78;;;24.30;54.00;;;;;;6138225;28;80451;-64
2022/06/24 06:34:10;;;;;;;10.13;4.43;;;24.30;54.20;;;;;;6157748;28;82204;-64
2022/06/24 06:37:11;;;;;;;9.88;4.60;;;24.20;54.50;;;;;;6160218;28;80727;-64
2022/06/24 06:40:11;;;;;;;7.88;4.70;;;24.20;54.80;;;;;;6160428;28;80356;-64
2022/06/24 06:43:12;;;;;;;6.65;4.28;;;24.10;54.90;;;;;;6160350;28;80390;-64
2022/06/24 06:46:12;;;;;;;9.88;4.20;;;24.10;55.00;;;;;;6158784;28;81499;-64
2022/06/24 06:49:13;;;;;;;8.93;4.65;;;24.20;55.00;;;;;;6159331;28;81291;-64
2022/06/24 06:52:13;;;;;;;19.65;4.75;;;24.20;55.00;;;;;;6160102;28;80591;-64
2022/06/24 06:55:14;;;;;;;6.10;3.90;;;24.20;55.00;;;;;;6160144;28;80486;-65
2022/06/24 06:58:14;;;;;;;11.73;4.57;;;24.20;54.80;;;;;;6159917;28;80196;-64
2022/06/24 07:01:15;;;;;;;9.35;4.22;;;24.10;55.10;;;;;;6159812;28;81530;-64
2022/06/24 07:04:15;;;;;;;8.38;4.13;;;24.20;54.90;;;;;;6160221;28;80232;-64
2022/06/24 07:07:16;;;;;;;15.63;3.90;;;24.20;55.10;;;;;;6150464;28;80168;-64
2022/06/24 07:10:16;;;;;;;7.70;3.67;;;24.30;54.60;;;;;;6159621;28;80549;-64
2022/06/24 07:13:17;;;;;;;11.10;3.63;;;24.20;54.90;;;;;;6159706;28;81448;-64
2022/06/24 07:16:17;;;;;;;9.68;3.85;;;24.20;54.80;;;;;;6159891;28;80481;-64
2022/06/24 07:19:17;;;;;;;8.02;3.97;;;24.30;54.30;;;;;;6159114;28;80515;-64
2022/06/24 07:22:18;;;;;;;7.53;3.53;;;24.30;54.60;;;;;;6158972;28;80490;-64
2022/06/24 07:25:19;;;;;;;5.85;3.47;;;24.30;54.20;;;;;;6158041;28;81803;-64
2022/06/24 07:28:19;;;;;;;3.75;2.67;;;24.30;54.20;;;;;;6159982;28;80317;-64
2022/06/24 07:31:20;;;;;;;5.70;3.10;;;24.30;53.20;;;;;;6153631;28;80403;-64
2022/06/24 07:34:21;;;;;;;7.07;3.35;;;24.20;52.50;;;;;;6153833;28;81447;-64
2022/06/24 07:37:21;;;;;;;3.35;2.40;;;24.30;52.70;;;;;;6158825;28;81750;-64
2022/06/24 07:40:21;;;;;;;5.38;3.15;;;24.30;52.60;;;;;;6158805;28;81502;-65
2022/06/24 07:43:23;;;;;;;6.30;3.05;;;24.40;52.30;;;;;;6158667;28;80328;-64
2022/06/24 07:46:24;;;;;;;3.72;2.20;;;24.40;52.00;;;;;;6159117;28;80880;-64
2022/06/24 07:49:24;;;;;;;3.13;1.80;;;24.30;49.20;;;;;;6153581;28;80510;-65
2022/06/24 07:52:24;;;;;;;3.47;2.30;;;24.30;48.40;;;;;;6158544;28;80276;-64
2022/06/24 07:58:44;;;;;;;3.05;2.10;;;24.40;48.80;;;;;;6158156;28;80436;-64
2022/06/24 08:01:45;;;;;;;3.97;1.90;;;24.30;48.20;;;;;;6158447;28;80242;-64
2022/06/24 08:04:50;;;;;;;3.22;2.00;;;24.30;48.10;;;;;;6157888;28;80857;-64
2022/06/24 08:07:50;;;;;;;4.10;2.17;;;24.30;47.60;;;;;;6146782;28;80226;-64
2022/06/24 08:10:50;;;;;;;2.92;1.75;;;24.30;47.60;;;;;;6158220;28;80306;-64
2022/06/24 08:13:51;;;;;;;2.67;1.80;;;24.40;47.60;;;;;;6153987;28;80506;-64
2022/06/24 08:16:51;;;;;;;2.38;1.70;;;24.50;48.20;;;;;;6158021;28;81182;-64
2022/06/24 08:19:52;;;;;;;5.45;2.05;;;24.40;47.50;;;;;;6157881;28;80436;-64
2022/06/24 08:22:53;;;;;;;4.43;2.13;;;24.40;47.30;;;;;;6154382;28;86476;-64
2022/06/24 08:25:53;;;;;;;2.08;1.88;;;24.50;47.10;;;;;;6158162;28;80482;-64
2022/06/24 08:28:54;;;;;;;3.13;1.98;;;24.40;47.10;;;;;;6158317;28;80925;-64
2022/06/24 08:31:54;;;;;;;2.60;1.85;;;24.50;47.40;;;;;;6158030;28;80449;-64
2022/06/24 08:34:55;;;;;;;4.10;1.85;;;24.60;47.50;;;;;;6158501;28;81288;-64
2022/06/24 08:37:55;;;;;;;3.88;1.70;;;24.70;47.20;;;;;;6157854;28;80864;-64
2022/06/24 08:40:56;;;;;;;5.55;2.05;;;24.70;47.10;;;;;;6157917;28;81370;-64
2022/06/24 08:43:58;;;;;;;2.38;1.95;;;24.70;47.40;;;;;;6155278;28;80500;-64
2022/06/24 08:46:59;;;;;;;3.30;2.15;;;24.80;47.40;;;;;;6154870;28;81460;-65
2022/06/24 08:49:59;;;;;;;3.30;1.80;;;24.80;47.50;;;;;;6158211;28;80294;-64
2022/06/24 08:53:00;;;;;;;3.15;2.45;;;24.80;46.80;;;;;;6157024;28;80781;-65
2022/06/24 08:56:00;;;;;;;5.03;2.72;;;24.90;46.00;;;;;;6161465;28;80742;-64
2022/06/24 08:59:01;;;;;;;9.32;2.35;;;24.90;45.50;;;;;;6150533;28;80545;-64
2022/06/24 09:02:01;;;;;;;3.60;1.73;;;24.80;45.60;;;;;;6157894;28;80350;-65
2022/06/24 09:05:02;;;;;;;2.42;1.90;;;24.90;45.60;;;;;;6157990;28;80265;-65
2022/06/24 09:08:02;;;;;;;1.73;1.63;;;24.90;45.50;;;;;;6157173;28;80457;-64
2022/06/24 09:11:10;;;;;;;4.90;2.63;;;25.00;45.50;;;;;;6157806;28;80798;-65
2022/06/24 09:14:10;;;;;;;1.88;1.70;;;25.10;45.40;;;;;;6157435;28;84761;-65
2022/06/24 09:17:11;;;;;;;4.03;2.15;;;25.10;44.80;;;;;;6158243;28;80435;-65
2022/06/24 09:20:12;;;;;;;4.15;1.75;;;25.20;44.80;;;;;;6159825;28;80659;-65
2022/06/24 09:23:12;;;;;;;2.92;2.20;;;25.20;45.40;;;;;;6160576;28;80849;-65
2022/06/24 09:26:13;;;;;;;2.17;1.65;;;25.30;45.50;;;;;;6161684;28;80439;-64
2022/06/24 09:29:13;;;;;;;9.85;1.77;;;25.20;45.00;;;;;;6161445;28;80890;-65
2022/06/24 09:32:14;;;;;;;2.30;1.67;;;25.30;45.60;;;;;;6161964;28;80448;-65
2022/06/24 09:35:14;;;;;;;9.77;2.08;;;25.30;43.50;;;;;;6161829;28;80341;-65
2022/06/24 09:38:15;;;;;;;3.65;1.77;;;25.40;44.10;;;;;;6162100;28;80518;-65
2022/06/24 09:41:15;;;;;;;3.30;1.52;;;25.40;44.40;;;;;;6152308;28;80400;-65
2022/06/24 09:44:16;;;;;;;2.10;1.60;;;25.50;44.70;;;;;;6161923;28;80916;-65
2022/06/24 09:47:16;;;;;;;4.93;2.00;;;25.50;44.80;;;;;;6155219;28;80445;-64
2022/06/24 09:50:17;;;;;;;2.78;1.92;;;25.50;45.00;;;;;;6148152;28;80565;-65
2022/06/24 09:53:17;;;;;;;4.75;1.95;;;25.50;44.80;;;;;;6160853;28;80365;-67
2022/06/24 09:56:17;;;;;;;4.15;2.40;;;25.60;45.10;;;;;;6161092;28;80609;-64
2022/06/24 10:02:37;;;;;;;2.88;1.77;;;25.60;44.20;;;;;;6161038;28;80797;-65
2022/06/24 10:05:38;;;;;;;4.80;1.80;;;25.60;43.20;;;;;;6160838;28;80672;-65
2022/06/24 10:08:38;;;;;;;2.13;1.90;;;25.60;43.00;;;;;;6160194;28;80646;-64
2022/06/24 10:11:39;;;;;;;3.15;1.90;;;25.70;43.10;;;;;;6158931;28;80331;-64
2022/06/24 10:14:39;;;;;;;6.20;1.90;;;25.70;43.20;;;;;;6149542;28;80412;-65
2022/06/24 10:17:40;;;;;;;2.42;1.80;;;25.70;43.50;;;;;;6159399;28;80393;-64
2022/06/24 10:20:40;;;;;;;2.22;1.50;;;25.80;44.10;;;;;;6160709;28;80199;-65
2022/06/24 10:23:41;;;;;;;2.13;1.92;;;25.80;44.50;;;;;;6159927;28;80395;-65
2022/06/24 10:26:41;;;;;;;3.53;2.05;;;25.90;43.60;;;;;;6158224;28;82850;-64
2022/06/24 10:29:42;;;;;;;5.43;2.03;;;25.90;43.40;;;;;;6160074;28;80512;-65
2022/06/24 10:32:42;;;;;;;2.95;1.75;;;26.00;44.20;;;;;;6154521;28;80579;-64
2022/06/24 10:35:43;;;;;;;2.95;1.65;;;25.90;44.00;;;;;;6157833;28;81126;-64
2022/06/24 10:38:43;;;;;;;5.93;2.10;;;25.90;44.40;;;;;;6159702;28;80726;-64
2022/06/24 10:41:44;;;;;;;2.60;2.17;;;25.90;45.00;;;;;;6159751;28;80792;-64
2022/06/24 10:44:44;;;;;;;9.13;2.10;;;25.90;45.10;;;;;;6159749;28;80302;-64
2022/06/24 10:47:45;;;;;;;2.80;2.17;;;25.90;45.00;;;;;;6160156;28;80405;-64
2022/06/24 10:50:46;;;;;;;3.58;1.90;;;25.90;45.30;;;;;;6139190;28;80505;-64
2022/06/24 10:53:46;;;;;;;2.70;1.75;;;26.00;44.30;;;;;;6159489;28;81305;-64
2022/06/24 10:56:47;;;;;;;3.15;2.10;;;26.10;42.80;;;;;;6159476;28;82321;-64
2022/06/24 10:59:48;;;;;;;2.80;1.80;;;26.00;42.80;;;;;;6159861;28;80946;-64
2022/06/24 11:02:48;;;;;;;2.50;1.83;;;26.10;42.70;;;;;;6153349;28;80707;-65
2022/06/24 11:05:50;;;;;;;5.00;2.00;;;26.20;42.60;;;;;;6154180;28;80450;-64
2022/06/24 11:08:51;;;;;;;3.22;1.73;;;26.30;42.50;;;;;;6159403;28;80679;-65
2022/06/24 11:11:51;;;;;;;5.38;2.20;;;26.30;42.50;;;;;;6159525;28;80266;-65
2022/06/24 11:14:52;;;;;;;3.63;1.55;;;26.30;42.90;;;;;;6157178;28;80361;-64
2022/06/24 11:17:52;;;;;;;2.50;2.10;;;26.30;44.20;;;;;;6146693;28;80544;-64
2022/06/24 11:20:54;;;;;;;3.38;2.10;;;26.40;44.10;;;;;;6159551;28;81295;-65
2022/06/24 11:23:55;;;;;;;2.63;1.95;;;26.40;44.50;;;;;;6159503;28;80886;-64
2022/06/24 11:26:55;;;;;;;2.65;1.98;;;26.30;44.50;;;;;;6149413;28;80238;-64
2022/06/24 11:30:00;;;;;;;5.03;2.15;;;26.20;44.70;;;;;;6151882;28;80379;-64
2022/06/24 11:33:03;;;;;;;3.30;2.67;;;26.20;45.10;;;;;;6159433;28;80475;-64
2022/06/24 11:36:04;;;;;;;4.22;2.80;;;26.40;45.10;;;;;;6159352;28;81154;-64
2022/06/24 11:39:05;;;;;;;4.07;2.05;;;26.50;44.40;;;;;;6154814;28;80413;-64
2022/06/24 11:42:05;;;;;;;4.38;2.25;;;26.40;44.60;;;;;;6158543;28;80926;-64
2022/06/24 11:45:05;;;;;;;5.75;2.35;;;26.40;45.40;;;;;;6159525;28;80157;-64
2022/06/24 11:48:06;;;;;;;3.33;2.40;;;26.40;45.20;;;;;;6159362;28;81196;-64
2022/06/24 11:51:06;;;;;;;4.15;1.92;;;26.40;45.30;;;;;;6159049;28;80489;-64
2022/06/24 11:54:07;;;;;;;2.10;1.90;;;26.50;45.70;;;;;;6134770;28;81236;-64
2022/06/24 11:57:09;;;;;;;2.80;2.10;;;26.50;45.50;;;;;;6149271;28;81912;-64
2022/06/24 12:00:09;;;;;;;2.28;1.80;;;26.50;45.80;;;;;;6158645;28;80414;-64
2022/06/24 12:03:12;;;;;;;3.38;1.92;;;26.40;45.90;;;;;;6159138;28;80707;-64
2022/06/24 12:06:12;;;;;;;6.22;2.05;;;26.40;46.00;;;;;;6159100;28;80563;-64
2022/06/24 12:09:12;;;;;;;3.00;2.22;;;26.30;46.20;;;;;;6158360;28;80414;-64
2022/06/24 12:12:14;;;;;;;2.80;2.08;;;26.30;46.30;;;;;;6158590;28;80922;-64
2022/06/24 12:15:14;;;;;;;3.03;2.05;;;26.30;46.20;;;;;;6159418;28;80446;-64
2022/06/24 12:18:15;;;;;;;2.30;1.77;;;26.20;46.60;;;;;;6158414;28;81704;-64
2022/06/24 12:21:15;;;;;;;2.15;1.70;;;26.10;45.80;;;;;;6159853;28;79791;-64
2022/06/24 12:24:16;;;;;;;2.25;1.77;;;26.10;45.50;;;;;;6160243;28;80534;-64
2022/06/24 12:27:16;;;;;;;1.77;1.40;;;26.10;45.60;;;;;;6158582;28;80678;-65
2022/06/24 12:30:16;;;;;;;3.85;1.90;;;26.00;45.90;;;;;;6149462;28;80296;-65
2022/06/24 12:33:17;;;;;;;6.68;1.98;;;26.00;45.90;;;;;;6158073;28;80534;-64
2022/06/24 12:36:17;;;;;;;2.45;1.80;;;26.00;46.10;;;;;;6158179;28;81209;-64
2022/06/24 12:39:18;;;;;;;2.92;1.85;;;25.90;46.20;;;;;;6158247;28;80530;-64
2022/06/24 12:42:19;;;;;;;5.75;1.80;;;26.00;46.50;;;;;;6158093;28;81395;-64
2022/06/24 12:45:20;;;;;;;2.40;1.90;;;26.00;46.50;;;;;;6158284;28;80796;-64
2022/06/24 12:51:40;;;;;;;1.60;1.50;;;26.00;46.80;;;;;;6159322;28;86441;-64
2022/06/24 12:54:41;;;;;;;3.90;1.70;;;26.00;46.60;;;;;;6162303;28;80421;-64
2022/06/24 12:57:41;;;;;;;2.22;1.80;;;26.00;46.90;;;;;;6162186;28;81591;-63
2022/06/24 13:00:41;;;;;;;4.80;1.85;;;26.00;46.60;;;;;;6161964;28;80466;-64
2022/06/24 13:03:42;;;;;;;2.58;1.73;;;26.00;46.60;;;;;;6145727;28;80522;-64
2022/06/24 13:06:43;;;;;;;3.20;1.80;;;26.00;46.50;;;;;;6154406;28;80553;-63
2022/06/24 13:09:44;;;;;;;2.00;1.65;;;25.90;46.30;;;;;;6161770;28;81015;-63
2022/06/24 13:12:44;;;;;;;6.30;1.83;;;25.90;46.60;;;;;;6154462;28;80594;-63
2022/06/24 13:15:45;;;;;;;3.00;1.98;;;26.00;46.80;;;;;;6158810;28;80258;-63
2022/06/24 13:18:45;;;;;;;2.42;2.03;;;26.00;46.80;;;;;;6160525;28;82409;-63
2022/06/24 13:21:46;;;;;;;2.80;1.90;;;25.90;46.60;;;;;;6161645;28;80437;-64
2022/06/24 13:24:46;;;;;;;4.20;1.85;;;26.00;47.20;;;;;;6161930;28;80489;-63
2022/06/24 13:27:48;;;;;;;3.80;1.80;;;25.90;46.90;;;;;;6162274;28;80869;-64
2022/06/24 13:30:48;;;;;;;2.97;2.17;;;26.10;46.60;;;;;;6160606;28;81297;-65
2022/06/24 13:33:49;;;;;;;4.90;1.90;;;26.20;46.70;;;;;;6161662;28;81683;-67
2022/06/24 13:36:49;;;;;;;8.48;2.22;;;26.20;47.20;;;;;;6156180;28;81693;-67
2022/06/24 13:39:50;;;;;;;7.85;2.20;;;26.10;47.60;;;;;;6151066;28;81845;-66
2022/06/24 13:42:51;;;;;;;6.05;2.20;;;26.10;47.60;;;;;;6162328;28;81461;-66
2022/06/24 13:45:51;;;;;;;2.70;1.60;;;26.10;47.40;;;;;;6162307;28;80549;-73
2022/06/24 13:48:52;;;;;;;6.30;1.60;;;26.10;47.90;;;;;;6163181;28;80838;-73
2022/06/24 13:51:53;;;;;;;2.65;1.70;;;26.10;48.40;;;;;;6162237;28;80895;-73
2022/06/24 13:54:54;;;;;;;4.40;1.88;;;26.10;47.10;;;;;;6158402;28;80900;-75
2022/06/24 13:57:54;;;;;;;2.85;1.80;;;26.10;47.50;;;;;;6159505;28;81651;-74
2022/06/24 14:00:56;;;;;;;2.70;1.70;;;26.10;47.30;;;;;;6152010;28;81285;-69
2022/06/24 14:03:57;;;;;;;1.77;1.65;;;26.10;47.30;;;;;;6160096;28;81643;-74
2022/06/24 14:06:57;;;;;;;1.50;1.40;;;26.10;47.00;;;;;;6153810;28;81136;-74
2022/06/24 14:09:59;;;;;;;5.82;1.88;;;26.10;47.20;;;;;;6162817;28;80991;-76
2022/06/24 14:12:59;;;;;;;2.95;1.83;;;26.20;47.20;;;;;;6162275;28;80533;-72
2022/06/24 14:16:00;;;;;;;3.20;1.80;;;26.30;47.30;;;;;;6151564;28;82334;-72
2022/06/24 14:19:00;;;;;;;3.63;1.67;;;26.30;47.20;;;;;;6161279;28;80803;-73
2022/06/24 14:22:01;;;;;;;2.97;1.85;;;26.30;47.00;;;;;;6163935;28;81565;-72
2022/06/24 14:25:01;;;;;;;4.00;1.83;;;26.30;47.30;;;;;;6157641;28;80313;-72
2022/06/24 14:28:01;;;;;;;3.47;1.73;;;26.30;46.70;;;;;;6152249;28;80768;-73
2022/06/24 14:31:04;;;;;;;3.53;1.55;;;26.20;47.30;;;;;;6145270;28;80508;-73
2022/06/24 14:34:04;;;;;;;2.28;1.60;;;26.20;47.10;;;;;;6150445;28;80163;-73
2022/06/24 14:40:11;;;;;;;1.67;1.55;;;26.20;47.00;;;;;;6152563;28;81875;-75
2022/06/24 14:40:25;;;;;;;3.53;1.92;;;26.20;47.30;;;;;;6150709;28;87264;-73
2022/06/24 14:43:26;;;;;;;2.25;1.70;;;26.20;47.10;;;;;;6161693;28;80701;-73
2022/06/24 14:46:26;;;;;;;2.63;2.03;;;26.20;47.20;;;;;;6160713;28;80430;-73
2022/06/24 14:49:27;;;;;;;5.18;1.73;;;26.20;47.20;;;;;;6159353;28;80741;-73
2022/06/24 14:52:27;;;;;;;7.07;1.88;;;26.20;47.10;;;;;;6159314;28;83940;-70
2022/06/24 14:55:28;;;;;;;2.30;2.10;;;26.10;47.50;;;;;;6161982;28;80450;-75
2022/06/24 14:58:28;;;;;;;2.65;1.73;;;26.10;47.50;;;;;;6153591;28;80471;-73
2022/06/24 15:01:29;;;;;;;5.72;1.85;;;26.20;48.00;;;;;;6160027;28;81034;-71
2022/06/24 15:04:30;;;;;;;2.03;1.80;;;26.20;48.20;;;;;;6160630;28;80149;-69
2022/06/24 15:07:30;;;;;;;2.17;1.80;;;26.20;48.30;;;;;;6156349;28;80326;-67
2022/06/24 15:10:30;;;;;;;3.67;1.85;;;26.10;47.40;;;;;;6160447;28;80569;-68
2022/06/24 15:13:31;;;;;;;1.67;1.50;;;26.10;47.90;;;;;;6153091;28;80685;-69
2022/06/24 15:16:31;;;;;;;3.15;2.25;;;26.10;47.30;;;;;;6160715;28;80186;-71
2022/06/24 15:19:32;;;;;;;3.90;2.15;;;26.20;47.30;;;;;;6160416;28;80558;-68
2022/06/24 15:22:33;;;;;;;2.65;1.90;;;26.20;48.00;;;;;;6160608;28;80278;-70
2022/06/24 15:25:34;;;;;;;1.70;1.60;;;26.20;48.00;;;;;;6148293;28;80167;-70
2022/06/24 15:28:34;;;;;;;1.60;1.45;;;26.20;47.90;;;;;;6149434;28;80470;-70
2022/06/24 15:31:36;;;;;;;2.85;2.00;;;26.20;47.60;;;;;;6152332;28;81681;-70
2022/06/24 15:34:37;;;;;;;4.97;2.05;;;26.20;47.70;;;;;;6150809;28;81842;-69
2022/06/24 15:37:38;;;;;;;5.05;2.10;;;26.20;47.40;;;;;;6156399;28;80267;-69
2022/06/24 15:40:38;;;;;;;2.30;1.83;;;26.20;48.00;;;;;;6146658;28;80492;-67
2022/06/24 15:43:39;;;;;;;4.82;1.45;;;26.20;48.30;;;;;;6145511;28;80331;-68
2022/06/24 15:46:39;;;;;;;3.33;1.80;;;26.20;47.60;;;;;;6154278;28;80702;-68
2022/06/24 15:49:40;;;;;;;3.72;2.10;;;26.20;48.00;;;;;;6159506;28;80415;-69
2022/06/24 15:52:40;;;;;;;2.95;1.90;;;26.20;47.60;;;;;;6152650;28;80282;-68